createdAt,value
2022-11-30T00:00:43.324Z,-2.21
2022-11-30T00:03:11.130Z,-2.18
2022-11-30T00:05:38.754Z,-2.23
2022-11-30T00:08:06.881Z,-2.25
2022-11-30T00:10:35.002Z,-2.20
2022-11-30T00:13:02.677Z,-2.19
2022-11-30T00:15:36.505Z,-2.17
2022-11-30T00:18:04.278Z,-2.19
2022-11-30T00:20:32.191Z,-2.18
2022-11-30T00:23:00.427Z,-2.19
2022-11-30T00:25:28.135Z,-2.15
2022-11-30T00:27:55.735Z,-2.16
2022-11-30T00:30:23.433Z,-2.21
2022-11-30T00:32:51.104Z,-2.26
2022-11-30T00:35:18.679Z,-2.25
2022-11-30T00:37:46.307Z,-2.24
2022-11-30T00:40:14.354Z,-2.33
2022-11-30T00:42:42.254Z,-2.26
2022-11-30T00:45:10.355Z,-2.31
2022-11-30T00:47:39.776Z,-2.32
2022-11-30T00:50:08.093Z,-2.31
2022-11-30T00:52:35.930Z,-2.30
2022-11-30T00:55:04.440Z,-2.33
2022-11-30T00:57:33.044Z,-2.27
2022-11-30T01:00:00.651Z,-2.27
2022-11-30T01:02:28.702Z,-2.32
2022-11-30T01:04:56.253Z,-2.34
2022-11-30T01:07:24.132Z,-2.31
2022-11-30T01:09:51.811Z,-2.31
2022-11-30T01:12:19.439Z,-2.30
2022-11-30T01:14:47.131Z,-2.33
2022-11-30T01:17:14.930Z,-2.33
2022-11-30T01:19:42.439Z,-2.30
2022-11-30T01:22:10.162Z,-2.36
2022-11-30T01:24:37.793Z,-2.34
2022-11-30T01:27:05.331Z,-2.30
2022-11-30T01:29:32.942Z,-2.33
2022-11-30T01:32:01.360Z,-2.34
2022-11-30T01:34:29.104Z,-2.35
2022-11-30T01:36:56.789Z,-2.40
2022-11-30T01:39:24.463Z,-2.30
2022-11-30T01:41:53.781Z,-2.28
2022-11-30T01:44:26.726Z,-2.26
2022-11-30T01:47:00.170Z,-2.33
2022-11-30T01:49:31.769Z,-2.28
2022-11-30T01:52:17.058Z,-2.24
2022-11-30T01:54:54.758Z,-2.21
2022-11-30T01:57:27.578Z,-2.22
2022-11-30T01:59:55.477Z,-2.23
2022-11-30T02:02:53.159Z,-2.29
2022-11-30T02:05:22.601Z,-2.28
2022-11-30T02:07:50.359Z,-2.28
2022-11-30T02:10:19.933Z,-2.23
2022-11-30T02:12:59.633Z,-2.26
2022-11-30T02:15:28.479Z,-2.34
2022-11-30T02:18:09.909Z,-2.27
2022-11-30T02:21:04.497Z,-2.33
2022-11-30T02:23:49.610Z,-2.31
2022-11-30T02:26:33.867Z,-2.35
2022-11-30T02:29:06.521Z,-2.29
2022-11-30T02:31:42.737Z,-2.28
2022-11-30T02:34:10.967Z,-2.28
2022-11-30T02:36:38.568Z,-2.26
2022-11-30T02:39:06.714Z,-2.23
2022-11-30T02:41:39.123Z,-2.26
2022-11-30T02:44:07.440Z,-2.28
2022-11-30T02:47:01.161Z,-2.20
2022-11-30T02:49:37.643Z,-2.17
2022-11-30T02:52:05.526Z,-2.26
2022-11-30T02:54:34.043Z,-2.22
2022-11-30T02:57:02.016Z,-2.25
2022-11-30T02:59:29.680Z,-2.26
2022-11-30T03:01:57.764Z,-2.19
2022-11-30T03:04:44.222Z,-2.27
2022-11-30T03:07:12.064Z,-2.25
2022-11-30T03:09:39.819Z,-2.26
2022-11-30T03:12:07.480Z,-2.19
2022-11-30T03:14:35.061Z,-2.22
2022-11-30T03:17:02.619Z,-2.22
2022-11-30T03:19:30.609Z,-2.27
2022-11-30T03:21:58.288Z,-2.27
2022-11-30T03:24:26.001Z,-2.26
2022-11-30T03:26:53.535Z,-2.29
2022-11-30T03:29:22.318Z,-2.29
2022-11-30T03:31:49.897Z,-2.34
2022-11-30T03:34:17.501Z,-2.35
2022-11-30T03:36:45.040Z,-2.37
2022-11-30T03:39:12.748Z,-2.31
2022-11-30T03:41:40.436Z,-2.31
2022-11-30T03:44:07.973Z,-2.25
2022-11-30T03:46:35.748Z,-2.30
2022-11-30T03:49:04.356Z,-2.23
2022-11-30T03:51:32.662Z,-2.20
2022-11-30T03:54:00.243Z,-2.28
2022-11-30T03:56:28.960Z,-2.26
2022-11-30T03:58:56.534Z,-2.18
2022-11-30T04:01:24.940Z,-2.19
2022-11-30T04:03:52.831Z,-2.18
2022-11-30T04:06:22.347Z,-2.21
2022-11-30T04:08:50.431Z,-2.23
2022-11-30T04:11:18.776Z,-2.17
2022-11-30T04:13:46.374Z,-2.20
2022-11-30T04:16:14.013Z,-2.15
2022-11-30T04:18:41.590Z,-2.16
2022-11-30T04:21:10.012Z,-2.14
2022-11-30T04:23:39.012Z,-2.16
2022-11-30T04:26:10.068Z,-2.13
2022-11-30T04:28:38.865Z,-2.14
2022-11-30T04:31:06.709Z,-2.15
2022-11-30T04:33:34.466Z,-2.21
2022-11-30T04:36:05.316Z,-2.19
2022-11-30T04:38:33.143Z,-2.22
2022-11-30T04:41:00.825Z,-2.16
2022-11-30T04:43:28.922Z,-2.25
2022-11-30T04:45:56.642Z,-2.09
2022-11-30T04:48:24.523Z,-2.08
2022-11-30T04:50:52.312Z,-2.08
2022-11-30T04:53:19.914Z,-2.09
2022-11-30T04:55:47.447Z,-2.08
2022-11-30T04:58:15.413Z,-2.05
2022-11-30T05:00:42.967Z,-2.07
2022-11-30T05:03:10.660Z,-2.04
2022-11-30T05:05:40.682Z,-2.06
2022-11-30T05:08:09.479Z,-2.01
2022-11-30T05:10:37.012Z,-2.08
2022-11-30T05:13:04.646Z,-1.99
2022-11-30T05:15:33.060Z,-1.99
2022-11-30T05:18:01.443Z,-1.96
2022-11-30T05:20:29.201Z,-1.93
2022-11-30T05:22:56.742Z,-1.92
2022-11-30T05:25:24.596Z,-1.83
2022-11-30T05:27:52.272Z,-1.78
2022-11-30T05:30:20.018Z,-1.74
2022-11-30T05:32:50.130Z,-1.72
2022-11-30T05:35:17.821Z,-1.68
2022-11-30T05:37:46.823Z,-1.60
2022-11-30T05:40:15.022Z,-1.67
2022-11-30T05:42:42.596Z,-1.67
2022-11-30T05:45:10.834Z,-1.58
2022-11-30T05:47:39.097Z,-1.48
2022-11-30T05:50:09.524Z,-1.45
2022-11-30T05:52:39.366Z,-1.49
2022-11-30T05:55:07.181Z,-1.41
2022-11-30T05:57:38.962Z,-1.43
2022-11-30T06:00:08.695Z,-1.40
2022-11-30T06:02:42.347Z,-1.36
2022-11-30T06:05:10.207Z,-1.34
2022-11-30T06:41:20.090Z,-1.00
2022-11-30T06:43:48.979Z,-0.88
2022-11-30T06:46:16.752Z,-0.78
2022-11-30T06:48:51.017Z,-0.70
2022-11-30T06:51:20.760Z,-0.70
2022-11-30T06:53:48.433Z,-0.66
2022-11-30T06:56:16.224Z,-0.63
2022-11-30T06:58:44.421Z,-0.63
2022-11-30T07:01:14.758Z,-0.57
2022-11-30T07:03:42.500Z,-0.54
2022-11-30T07:06:14.781Z,-0.48
2022-11-30T07:08:44.576Z,-0.34
2022-11-30T07:11:12.357Z,-0.26
2022-11-30T07:13:40.186Z,-0.18
2022-11-30T07:16:09.158Z,-0.11
2022-11-30T07:18:37.029Z,-0.17
2022-11-30T07:21:05.503Z,-0.22
2022-11-30T07:23:56.189Z,-0.23
2022-11-30T07:26:24.731Z,-0.20
2022-11-30T07:28:55.466Z,-0.17
2022-11-30T07:31:24.200Z,-0.03
2022-11-30T07:33:52.675Z,-0.03
2022-11-30T07:36:23.114Z,0.15
2022-11-30T07:38:51.610Z,0.31
2022-11-30T07:41:19.419Z,0.40
2022-11-30T07:43:47.077Z,0.40
2022-11-30T07:46:15.451Z,0.49
2022-11-30T07:48:43.519Z,0.49
2022-11-30T07:51:19.891Z,0.50
2022-11-30T07:53:47.945Z,0.52
2022-11-30T07:56:19.567Z,0.46
2022-11-30T07:58:48.071Z,0.60
2022-11-30T08:01:17.697Z,0.51
2022-11-30T08:03:45.647Z,0.53
2022-11-30T08:06:20.354Z,0.59
2022-11-30T08:08:49.039Z,0.70
2022-11-30T08:11:18.750Z,0.77
2022-11-30T08:13:46.359Z,0.71
2022-11-30T08:16:17.025Z,0.75
2022-11-30T08:18:44.728Z,0.75
2022-11-30T08:21:13.599Z,0.83
2022-11-30T08:23:42.729Z,0.82
2022-11-30T08:26:12.034Z,0.90
2022-11-30T08:28:40.461Z,0.88
2022-11-30T08:31:10.536Z,1.01
2022-11-30T08:33:38.266Z,1.13
2022-11-30T08:36:17.027Z,1.12
2022-11-30T08:38:45.226Z,1.22
2022-11-30T08:41:16.126Z,1.44
2022-11-30T08:43:44.378Z,1.54
2022-11-30T08:46:42.469Z,1.73
2022-11-30T08:49:20.253Z,1.88
2022-11-30T08:54:39.571Z,2.03
2022-11-30T08:57:07.114Z,2.11
2022-11-30T08:59:35.125Z,2.19
2022-11-30T09:02:02.866Z,2.23
2022-11-30T09:04:30.556Z,1.98
2022-11-30T09:06:59.411Z,2.07
2022-11-30T09:09:27.229Z,2.02
2022-11-30T09:11:55.885Z,2.02
2022-11-30T09:14:23.829Z,1.97
2022-11-30T09:16:52.044Z,1.98
2022-11-30T09:19:20.136Z,1.87
2022-11-30T09:21:51.921Z,1.81
2022-11-30T09:24:21.023Z,1.82
2022-11-30T09:26:48.725Z,1.90
2022-11-30T09:29:16.420Z,1.98
2022-11-30T09:32:34.013Z,1.87
2022-11-30T09:35:01.659Z,2.06
2022-11-30T09:37:29.528Z,2.14
2022-11-30T09:39:57.371Z,2.09
2022-11-30T09:42:45.029Z,2.06
2022-11-30T09:45:31.873Z,2.03
2022-11-30T09:48:23.778Z,2.01
2022-11-30T09:50:51.677Z,1.97
2022-11-30T09:53:29.781Z,2.08
2022-11-30T09:55:57.608Z,2.10
2022-11-30T09:58:36.554Z,2.00
2022-11-30T10:01:07.344Z,1.98
2022-11-30T10:03:35.292Z,2.05
2022-11-30T10:06:09.352Z,2.03
2022-11-30T10:08:52.274Z,2.16
2022-11-30T10:11:41.257Z,2.23
2022-11-30T10:14:30.101Z,2.26
2022-11-30T10:17:22.499Z,2.37
2022-11-30T10:19:59.277Z,2.43
2022-11-30T10:22:32.062Z,2.56
2022-11-30T10:25:17.869Z,2.58
2022-11-30T10:27:55.636Z,2.54
2022-11-30T10:30:34.241Z,2.53
2022-11-30T10:33:18.881Z,2.49
2022-11-30T10:36:03.366Z,2.44
2022-11-30T10:38:34.868Z,2.51
2022-11-30T10:41:12.442Z,2.42
2022-11-30T10:43:45.731Z,2.43
2022-11-30T10:46:39.535Z,2.39
2022-11-30T10:49:13.946Z,2.47
2022-11-30T10:52:01.046Z,2.34
2022-11-30T10:54:37.558Z,2.38
2022-11-30T10:57:05.739Z,2.38
2022-11-30T10:59:50.116Z,2.46
2022-11-30T11:02:33.341Z,2.50
2022-11-30T11:05:31.078Z,2.54
2022-11-30T11:08:19.149Z,2.55
2022-11-30T11:10:49.918Z,2.71
2022-11-30T11:13:35.678Z,2.77
2022-11-30T11:16:04.130Z,2.80
2022-11-30T11:18:33.062Z,2.80
2022-11-30T11:21:10.145Z,2.73
2022-11-30T11:23:38.656Z,2.72
2022-11-30T11:26:35.723Z,2.71
2022-11-30T11:29:03.749Z,2.82
2022-11-30T11:31:46.849Z,2.74
2022-11-30T11:34:24.878Z,2.68
2022-11-30T11:37:28.845Z,2.60
2022-11-30T11:40:03.699Z,2.53
2022-11-30T11:42:34.635Z,2.49
2022-11-30T11:45:02.735Z,2.42
2022-11-30T11:47:41.556Z,2.48
2022-11-30T11:50:12.676Z,2.41
2022-11-30T11:52:40.630Z,2.48
2022-11-30T11:55:34.576Z,2.57
2022-11-30T11:58:02.596Z,2.58
2022-11-30T12:00:30.430Z,2.64
2022-11-30T12:03:08.977Z,2.60
2022-11-30T12:05:47.467Z,2.63
2022-11-30T12:08:29.087Z,2.67
2022-11-30T12:11:20.475Z,2.68
2022-11-30T12:13:48.132Z,2.72
2022-11-30T12:16:26.211Z,2.75
2022-11-30T12:19:15.809Z,2.73
2022-11-30T12:21:58.409Z,2.81
2022-11-30T12:24:34.696Z,2.80
2022-11-30T12:27:23.141Z,2.80
2022-11-30T12:29:56.852Z,2.84
2022-11-30T12:32:30.764Z,2.85
2022-11-30T12:35:17.492Z,2.81
2022-11-30T12:37:57.468Z,2.84
2022-11-30T12:40:39.054Z,2.90
2022-11-30T12:43:12.875Z,2.89
2022-11-30T12:45:42.747Z,2.91
2022-11-30T12:48:22.899Z,2.91
2022-11-30T12:51:32.364Z,2.92
2022-11-30T12:53:59.980Z,2.95
2022-11-30T12:56:49.235Z,2.94
2022-11-30T12:59:43.452Z,2.89
2022-11-30T13:02:32.861Z,2.79
2022-11-30T13:05:12.719Z,2.77
2022-11-30T13:07:44.138Z,2.75
2022-11-30T13:10:12.478Z,2.72
2022-11-30T13:12:43.932Z,2.73
2022-11-30T13:15:28.486Z,2.67
2022-11-30T13:17:56.088Z,2.64
2022-11-30T13:20:42.875Z,2.63
2022-11-30T13:23:12.816Z,2.69
2022-11-30T13:26:07.756Z,2.62
2022-11-30T13:28:36.191Z,2.64
2022-11-30T13:31:24.022Z,2.62
2022-11-30T13:33:54.719Z,2.66
2022-11-30T13:36:27.857Z,2.61
2022-11-30T13:39:13.882Z,2.61
2022-11-30T13:41:42.050Z,2.52
2022-11-30T13:44:32.408Z,2.45
2022-11-30T13:47:01.655Z,2.42
2022-11-30T13:49:36.326Z,2.42
2022-11-30T13:54:57.483Z,2.39
2022-11-30T13:57:25.042Z,2.39
2022-11-30T13:59:56.687Z,2.34
2022-11-30T14:02:33.332Z,2.38
2022-11-30T14:05:19.046Z,2.30
2022-11-30T14:08:07.625Z,2.30
2022-11-30T14:10:35.318Z,2.29
2022-11-30T14:13:29.473Z,2.29
2022-11-30T14:16:00.648Z,2.26
2022-11-30T14:18:38.632Z,2.21
2022-11-30T14:21:28.926Z,2.18
2022-11-30T14:24:07.963Z,2.17
2022-11-30T14:26:37.559Z,2.18
2022-11-30T14:29:08.505Z,2.14
2022-11-30T14:32:03.368Z,2.10
2022-11-30T14:34:39.141Z,2.07
2022-11-30T14:37:15.205Z,2.07
2022-11-30T14:39:45.774Z,2.11
2022-11-30T14:42:23.336Z,2.08
2022-11-30T14:44:51.120Z,2.02
2022-11-30T14:47:25.895Z,2.07
2022-11-30T14:49:55.274Z,2.02
2022-11-30T14:52:56.527Z,2.11
2022-11-30T14:55:24.224Z,2.11
2022-11-30T14:57:59.477Z,2.12
2022-11-30T15:00:30.498Z,2.13
2022-11-30T15:02:58.038Z,2.09
2022-11-30T15:05:28.301Z,2.07
2022-11-30T15:07:56.133Z,2.09
2022-11-30T15:10:29.922Z,2.06
2022-11-30T15:12:58.763Z,2.03
2022-11-30T15:15:27.967Z,2.06
2022-11-30T15:18:16.465Z,2.01
2022-11-30T15:20:45.037Z,1.96
2022-11-30T15:23:13.588Z,1.97
2022-11-30T15:25:51.237Z,1.93
2022-11-30T15:28:25.359Z,1.97
2022-11-30T15:30:55.023Z,1.89
2022-11-30T15:33:23.661Z,1.97
2022-11-30T15:38:43.269Z,1.94
2022-11-30T15:41:17.854Z,1.95
2022-11-30T15:43:51.946Z,2.00
2022-11-30T15:46:39.768Z,2.02
2022-11-30T15:49:24.877Z,2.05
2022-11-30T15:52:09.280Z,2.04
2022-11-30T15:54:56.045Z,1.97
2022-11-30T15:57:24.651Z,1.93
2022-11-30T16:00:14.008Z,1.86
2022-11-30T16:02:41.984Z,1.99
2022-11-30T16:05:14.734Z,1.91
2022-11-30T16:07:57.487Z,1.93
2022-11-30T16:10:26.819Z,1.91
2022-11-30T16:12:54.900Z,1.78
2022-11-30T16:15:27.601Z,1.88
2022-11-30T16:18:07.774Z,1.87
2022-11-30T16:20:35.476Z,1.85
2022-11-30T16:23:05.983Z,1.84
2022-11-30T16:25:33.973Z,1.82
2022-11-30T16:28:02.841Z,1.85
2022-11-30T16:30:30.762Z,1.82
2022-11-30T16:32:58.360Z,1.85
2022-11-30T16:36:17.349Z,1.87
2022-11-30T16:38:48.658Z,1.79
2022-11-30T16:41:21.107Z,1.81
2022-11-30T16:43:50.997Z,1.78
2022-11-30T16:46:23.187Z,1.75
2022-11-30T16:48:51.014Z,1.79
2022-11-30T16:51:24.097Z,1.78
2022-11-30T16:53:51.903Z,1.76
2022-11-30T16:56:19.661Z,1.73
2022-11-30T16:58:47.591Z,1.70
2022-11-30T17:01:21.816Z,1.73
2022-11-30T17:03:50.447Z,1.68
2022-11-30T17:06:22.137Z,1.69
2022-11-30T17:08:51.289Z,1.67
2022-11-30T17:11:29.617Z,1.68
2022-11-30T17:13:57.367Z,1.60
2022-11-30T17:16:25.045Z,1.65
2022-11-30T17:18:52.741Z,1.56
2022-11-30T17:21:23.883Z,1.52
2022-11-30T17:23:51.528Z,1.49
2022-11-30T19:19:21.770Z,1.48
2022-11-30T19:21:49.600Z,1.48
2022-11-30T19:24:17.271Z,1.49
2022-11-30T19:26:45.242Z,1.48
2022-11-30T19:29:12.910Z,1.53
2022-11-30T19:31:40.709Z,1.51
2022-11-30T19:34:12.506Z,1.49
2022-11-30T19:36:40.986Z,1.46
2022-11-30T19:39:09.867Z,1.51
2022-11-30T19:41:37.518Z,1.50
2022-11-30T19:44:05.268Z,1.58
2022-11-30T19:46:34.806Z,1.51
2022-11-30T19:49:02.702Z,1.53
2022-11-30T19:51:30.767Z,1.42
2022-11-30T19:54:01.141Z,1.42
2022-11-30T19:56:30.039Z,1.36
2022-11-30T19:59:04.167Z,1.33
2022-11-30T20:01:33.312Z,1.35
2022-11-30T20:04:01.107Z,1.28
2022-11-30T20:06:30.466Z,1.25
2022-11-30T20:08:58.281Z,1.24
2022-11-30T20:11:26.584Z,1.17
2022-11-30T20:13:54.227Z,1.15
2022-11-30T20:16:24.307Z,1.08
2022-11-30T20:19:00.980Z,1.00
2022-11-30T20:21:30.863Z,1.08
2022-11-30T20:24:00.153Z,0.98
2022-11-30T20:26:30.321Z,0.99
2022-11-30T20:28:59.118Z,0.93
2022-11-30T20:31:28.010Z,0.94
2022-11-30T20:33:55.615Z,0.94
2022-11-30T20:36:23.235Z,0.88
2022-11-30T20:38:50.788Z,0.86
2022-11-30T20:41:20.629Z,0.86
2022-11-30T20:43:48.231Z,0.81
2022-11-30T20:46:17.445Z,0.78
2022-11-30T20:48:45.185Z,0.72
2022-11-30T20:51:30.166Z,0.73
2022-11-30T20:54:03.883Z,0.72
2022-11-30T20:56:31.923Z,0.66
2022-11-30T20:59:03.181Z,0.67
2022-11-30T21:01:30.876Z,0.62
2022-11-30T21:04:00.926Z,0.61
2022-11-30T21:06:29.630Z,0.62
2022-11-30T21:08:57.576Z,0.61
2022-11-30T21:11:25.477Z,0.63
2022-11-30T21:13:53.519Z,0.61
2022-11-30T21:16:27.211Z,0.56
2022-11-30T21:18:56.304Z,0.55
2022-11-30T21:21:24.801Z,0.56
2022-11-30T21:23:52.545Z,0.56
2022-11-30T21:26:33.322Z,0.55
2022-11-30T21:29:03.514Z,0.57
2022-11-30T21:31:56.635Z,0.59
2022-11-30T21:34:25.471Z,0.61
2022-11-30T21:36:53.126Z,0.68
2022-11-30T21:39:21.245Z,0.69
2022-11-30T21:41:48.840Z,0.67
2022-11-30T21:44:16.919Z,0.66
2022-11-30T21:46:45.839Z,0.72
2022-11-30T21:49:14.462Z,0.68
2022-11-30T21:51:44.207Z,0.71
2022-11-30T21:54:12.353Z,0.71
2022-11-30T21:56:40.891Z,0.72
2022-11-30T21:59:08.893Z,0.74
2022-11-30T22:01:41.776Z,0.77
2022-11-30T22:04:10.263Z,0.66
2022-11-30T22:06:38.516Z,0.66
2022-11-30T22:09:08.173Z,0.68
2022-11-30T22:11:39.066Z,0.69
2022-11-30T22:14:07.493Z,0.70
2022-11-30T22:16:36.496Z,0.64
2022-11-30T22:19:05.593Z,0.62
2022-11-30T22:21:33.241Z,0.66
2022-11-30T22:24:05.521Z,0.62
2022-11-30T22:26:43.589Z,0.60
2022-11-30T22:29:19.375Z,0.63
2022-11-30T22:31:48.805Z,0.65
2022-11-30T22:34:18.221Z,0.59
2022-11-30T22:36:46.055Z,0.58
2022-11-30T22:39:19.466Z,0.59
2022-11-30T22:41:54.273Z,0.58
2022-11-30T22:44:22.675Z,0.61
2022-11-30T22:46:50.380Z,0.59
2022-11-30T22:49:21.284Z,0.61
2022-11-30T22:51:49.563Z,0.51
2022-11-30T22:54:17.303Z,0.60
2022-11-30T22:56:46.689Z,0.58
